York, Alabama
Current Conditions -  °F | °C
As of 10:55 AM on Saturday 22 Nov 2014 (Local Time) from KDYA Reporting Station
Clear Clear  
Wind Chill: 65°   Ceiling: Unl
Heat Index: 65°   Visibility: 10mi
Dew Point: 43°   Wind: 9mph
Humidity: 45%   Direction: 120°ESE
Pressure: 30.27"   Gusts: NA
Location:  32.49°N, 88.3°W
Report Text: KDYA 221655Z AUTO 12008KT 10SM CLR 19/06 A3027 RMK AO2 T01860063
Loading
Personal Weather Stations






























Interactive Weather Map New forecast layout! Learn more

10-Day Weather Forecast

Advertisements
Track Severe Weather on mobile